createdAt,value
2019-03-03T00:01:37.385Z,26.27
2019-03-03T00:04:08.215Z,26.37
2019-03-03T00:06:37.853Z,27.00
2019-03-03T00:09:08.202Z,27.63
2019-03-03T00:11:37.906Z,27.57
2019-03-03T00:14:07.681Z,26.87
2019-03-03T00:16:37.386Z,26.50
2019-03-03T00:19:07.065Z,27.90
2019-03-03T00:21:36.754Z,26.83
2019-03-03T00:24:06.470Z,26.67
2019-03-03T00:26:36.129Z,28.40
2019-03-03T00:29:05.792Z,27.67
2019-03-03T00:31:41.529Z,27.10
2019-03-03T00:34:11.226Z,27.37
2019-03-03T00:36:59.109Z,27.67
2019-03-03T00:39:36.605Z,28.17
2019-03-03T00:42:23.175Z,27.57
2019-03-03T00:45:00.504Z,25.83
2019-03-03T00:47:38.068Z,27.57
2019-03-03T00:50:09.535Z,27.30
2019-03-03T00:52:40.824Z,26.23
2019-03-03T00:55:14.820Z,26.47
2019-03-03T00:57:48.748Z,26.20
2019-03-03T01:00:37.980Z,27.10
2019-03-03T01:03:09.399Z,25.93
2019-03-03T01:05:56.962Z,25.57
2019-03-03T01:08:37.493Z,26.47
2019-03-03T01:11:17.803Z,24.33
2019-03-03T01:13:58.212Z,26.10
2019-03-03T01:16:41.825Z,26.47
2019-03-03T01:19:13.146Z,25.40
2019-03-03T01:22:00.830Z,24.70
2019-03-03T01:24:32.148Z,24.50
2019-03-03T01:27:01.910Z,25.27
2019-03-03T01:29:31.573Z,24.47
2019-03-03T01:32:01.513Z,24.53
2019-03-03T01:34:34.231Z,23.33
2019-03-03T01:37:03.958Z,23.57
2019-03-03T01:39:33.931Z,23.17
2019-03-03T01:42:03.716Z,22.00
2019-03-03T01:44:33.371Z,21.27
2019-03-03T01:47:03.052Z,22.63
2019-03-03T01:49:32.776Z,22.17
2019-03-03T01:52:02.493Z,22.23
2019-03-03T01:54:32.194Z,22.30
2019-03-03T01:57:01.946Z,21.50
2019-03-03T01:59:31.613Z,22.80
2019-03-03T02:02:01.335Z,21.33
2019-03-03T02:04:30.982Z,20.80
2019-03-03T02:07:00.714Z,21.67
2019-03-03T02:09:30.661Z,22.17
2019-03-03T02:12:00.437Z,21.33
2019-03-03T02:14:30.212Z,21.83
2019-03-03T02:16:59.956Z,21.87
2019-03-03T02:19:29.988Z,22.17
2019-03-03T02:21:59.741Z,21.67
2019-03-03T02:24:29.384Z,20.83
2019-03-03T02:26:59.116Z,21.07
2019-03-03T02:29:28.842Z,20.57
2019-03-03T02:31:58.766Z,20.57
2019-03-03T02:34:28.488Z,20.63
2019-03-03T02:36:58.529Z,21.17
2019-03-03T02:39:31.371Z,21.17
2019-03-03T02:42:01.079Z,21.00
2019-03-03T02:44:30.803Z,20.40
2019-03-03T02:47:00.461Z,21.47
2019-03-03T02:49:30.160Z,21.50
2019-03-03T02:52:07.107Z,21.73
2019-03-03T02:54:36.757Z,21.10
2019-03-03T02:57:06.457Z,21.57
2019-03-03T02:59:36.128Z,20.70
2019-03-03T03:02:07.519Z,21.67
2019-03-03T03:04:37.293Z,20.63
2019-03-03T03:07:08.551Z,21.17
2019-03-03T03:09:39.933Z,19.23
2019-03-03T03:12:13.998Z,19.43
2019-03-03T03:14:45.617Z,18.07
2019-03-03T03:17:26.438Z,19.37
2019-03-03T03:19:58.028Z,18.47
2019-03-03T03:22:35.834Z,17.10
2019-03-03T03:25:26.665Z,16.63
2019-03-03T03:28:14.323Z,17.27
2019-03-03T03:30:45.723Z,17.60
2019-03-03T03:33:20.003Z,17.00
2019-03-03T03:35:54.255Z,14.87
2019-03-03T03:38:34.274Z,14.33
2019-03-03T03:41:05.612Z,13.13
2019-03-03T03:43:49.261Z,14.00
2019-03-03T03:46:20.598Z,13.37
2019-03-03T03:49:06.968Z,13.50
2019-03-03T03:51:55.030Z,13.27
2019-03-03T03:54:25.873Z,13.13
2019-03-03T03:57:05.856Z,12.40
2019-03-03T03:59:42.962Z,13.03
2019-03-03T04:02:32.745Z,11.70
2019-03-03T04:05:20.815Z,12.83
2019-03-03T04:07:55.033Z,13.93
2019-03-03T04:10:26.373Z,14.10
2019-03-03T04:13:06.600Z,13.23
2019-03-03T04:15:40.805Z,12.50
2019-03-03T04:18:18.272Z,13.23
2019-03-03T04:21:02.001Z,13.00
2019-03-03T04:23:35.989Z,13.33
2019-03-03T04:26:09.865Z,13.37
2019-03-03T04:28:43.908Z,12.33
2019-03-03T04:31:21.372Z,12.67
2019-03-03T04:33:52.848Z,13.70
2019-03-03T04:36:30.125Z,13.03
2019-03-03T04:39:10.711Z,11.03
2019-03-03T04:41:44.853Z,12.30
2019-03-03T04:44:25.397Z,13.00
2019-03-03T04:46:56.707Z,12.73
2019-03-03T04:49:44.647Z,12.87
2019-03-03T04:52:34.326Z,12.33
2019-03-03T04:55:09.885Z,12.97
2019-03-03T04:57:46.772Z,13.27
2019-03-03T05:00:20.867Z,13.77
2019-03-03T05:03:04.125Z,14.43
2019-03-03T05:05:38.153Z,13.30
2019-03-03T05:08:12.138Z,13.77
2019-03-03T05:10:44.538Z,15.00
2019-03-03T05:13:18.959Z,15.27
2019-03-03T05:15:56.111Z,15.07
2019-03-03T05:18:42.492Z,13.90
2019-03-03T05:21:12.230Z,14.10
2019-03-03T05:23:42.953Z,15.23
2019-03-03T05:26:12.636Z,14.73
2019-03-03T05:28:42.293Z,14.50
2019-03-03T05:31:12.165Z,14.97
2019-03-03T05:33:41.876Z,14.67
2019-03-03T05:36:11.535Z,14.03
2019-03-03T05:38:44.444Z,14.03
2019-03-03T05:41:14.105Z,13.83
2019-03-03T05:43:43.809Z,13.20
2019-03-03T05:46:15.193Z,12.93
2019-03-03T05:48:44.889Z,13.47
2019-03-03T05:51:14.613Z,12.17
2019-03-03T05:53:44.382Z,12.83
2019-03-03T05:56:14.098Z,13.73
2019-03-03T05:58:43.894Z,13.10
2019-03-03T06:01:13.540Z,13.37
2019-03-03T06:03:43.215Z,11.80
2019-03-03T06:06:15.979Z,12.03
2019-03-03T06:08:45.735Z,12.10
2019-03-03T06:11:15.384Z,10.90
2019-03-03T06:13:45.096Z,11.63
2019-03-03T06:16:14.737Z,11.20
2019-03-03T06:18:44.475Z,10.97
2019-03-03T06:21:14.265Z,10.17
2019-03-03T06:23:43.937Z,9.33
2019-03-03T06:26:15.234Z,9.53
2019-03-03T06:28:44.937Z,9.13
2019-03-03T06:31:14.593Z,9.80
2019-03-03T06:33:44.414Z,9.73
2019-03-03T06:36:14.201Z,9.57
2019-03-03T06:38:43.849Z,8.83
2019-03-03T06:41:13.769Z,10.30
2019-03-03T06:43:43.460Z,9.43
2019-03-03T06:46:13.165Z,9.07
2019-03-03T06:48:42.993Z,9.40
2019-03-03T06:51:12.638Z,9.17
2019-03-03T06:53:42.307Z,9.43
2019-03-03T06:56:14.240Z,9.23
2019-03-03T06:58:43.654Z,8.50
2019-03-03T07:01:13.346Z,7.77
2019-03-03T07:03:43.030Z,8.33
2019-03-03T07:06:12.739Z,8.33
2019-03-03T07:08:42.402Z,8.37
2019-03-03T07:11:12.089Z,8.87
2019-03-03T07:13:41.780Z,8.90
2019-03-03T07:16:11.414Z,7.83
2019-03-03T07:18:41.652Z,7.73
2019-03-03T07:21:11.308Z,7.57
2019-03-03T07:23:41.056Z,7.00
2019-03-03T07:26:10.767Z,6.53
2019-03-03T07:28:40.475Z,7.00
2019-03-03T07:31:10.284Z,5.87
2019-03-03T07:33:40.021Z,6.33
2019-03-03T07:36:09.712Z,6.30
2019-03-03T07:38:39.377Z,5.97
2019-03-03T07:41:09.043Z,5.50
2019-03-03T07:43:38.746Z,6.53
2019-03-03T07:46:08.391Z,6.37
2019-03-03T07:48:38.021Z,5.67
2019-03-03T07:51:07.672Z,5.70
2019-03-03T07:53:37.368Z,5.03
2019-03-03T07:56:07.097Z,5.60
2019-03-03T07:58:36.749Z,5.53
2019-03-03T08:01:06.465Z,5.90
2019-03-03T08:03:36.041Z,5.67
2019-03-03T08:06:05.746Z,5.70
2019-03-03T08:08:35.398Z,5.73
2019-03-03T08:11:05.134Z,6.07
2019-03-03T08:13:34.783Z,7.40
2019-03-03T08:16:04.562Z,6.73
2019-03-03T08:18:34.227Z,7.47
2019-03-03T08:21:03.965Z,8.10
2019-03-03T08:23:33.623Z,9.07
2019-03-03T08:26:03.306Z,9.27
2019-03-03T08:28:33.068Z,9.30
2019-03-03T08:31:03.448Z,9.73
2019-03-03T08:33:33.127Z,9.60
2019-03-03T08:36:02.840Z,10.17
2019-03-03T08:38:32.506Z,9.23
2019-03-03T08:41:03.325Z,9.67
2019-03-03T08:43:34.667Z,9.60
2019-03-03T08:46:07.162Z,9.03
2019-03-03T08:48:44.334Z,8.63
2019-03-03T08:51:16.102Z,8.80
2019-03-03T08:53:47.392Z,9.30
2019-03-03T08:56:21.439Z,8.93
2019-03-03T08:58:52.821Z,8.47
2019-03-03T09:01:26.913Z,9.17
2019-03-03T09:04:00.244Z,9.30
2019-03-03T09:06:34.541Z,9.00
2019-03-03T09:09:19.615Z,8.40
2019-03-03T09:12:09.400Z,9.07
2019-03-03T09:14:40.743Z,9.20
2019-03-03T09:17:12.045Z,8.00
2019-03-03T09:19:49.217Z,9.13
2019-03-03T09:22:36.719Z,9.13
2019-03-03T09:25:10.043Z,8.47
2019-03-03T09:27:59.865Z,9.50
2019-03-03T09:30:31.167Z,9.75
2019-03-03T09:33:05.191Z,8.97
2019-03-03T09:35:36.508Z,8.30
2019-03-03T09:38:13.863Z,7.60
2019-03-03T09:40:48.474Z,8.00
2019-03-03T09:43:30.883Z,8.83
2019-03-03T09:46:18.115Z,7.57
2019-03-03T09:49:05.633Z,8.30
2019-03-03T09:51:39.677Z,6.97
2019-03-03T09:54:11.187Z,7.60
2019-03-03T09:56:44.986Z,9.40
2019-03-03T09:59:22.243Z,6.90
2019-03-03T10:02:09.691Z,7.60
2019-03-03T10:04:57.034Z,7.00
2019-03-03T10:07:37.963Z,7.37
2019-03-03T10:10:28.226Z,6.57
2019-03-03T10:13:16.191Z,7.70
2019-03-03T10:15:47.601Z,7.00
2019-03-03T10:18:25.154Z,6.53
2019-03-03T10:20:59.208Z,7.33
2019-03-03T10:23:36.501Z,6.53
2019-03-03T10:26:10.342Z,6.30
2019-03-03T10:28:44.228Z,6.97
2019-03-03T10:31:15.535Z,6.73
2019-03-03T10:34:01.748Z,6.87
2019-03-03T10:36:45.327Z,6.83
2019-03-03T10:39:22.445Z,6.00
2019-03-03T10:42:05.588Z,6.37
2019-03-03T10:44:46.006Z,7.03
2019-03-03T10:47:20.296Z,7.27
2019-03-03T10:49:54.590Z,6.73
2019-03-03T10:52:26.063Z,6.23
2019-03-03T10:54:57.390Z,5.70
2019-03-03T10:57:31.444Z,6.37
2019-03-03T11:00:21.248Z,6.00
2019-03-03T11:03:08.868Z,5.60
2019-03-03T11:05:55.187Z,7.70
2019-03-03T11:08:42.755Z,7.70
2019-03-03T11:11:23.376Z,7.23
2019-03-03T11:14:07.135Z,6.73
2019-03-03T11:16:50.502Z,6.50
2019-03-03T11:19:21.836Z,5.50
2019-03-03T11:21:59.103Z,6.60
2019-03-03T11:24:36.414Z,5.73
2019-03-03T11:27:13.868Z,6.47
2019-03-03T11:29:57.820Z,5.27
2019-03-03T11:32:44.065Z,5.63
2019-03-03T11:35:15.550Z,5.63
2019-03-03T11:37:49.941Z,5.60
2019-03-03T11:40:30.661Z,4.93
2019-03-03T11:43:10.838Z,5.03
2019-03-03T11:45:42.679Z,5.30
2019-03-03T11:48:30.557Z,5.20
2019-03-03T11:51:04.805Z,4.63
2019-03-03T11:53:36.078Z,5.20
2019-03-03T11:56:13.199Z,4.77
2019-03-03T11:58:47.500Z,4.50
2019-03-03T12:01:21.726Z,4.20
2019-03-03T12:04:08.337Z,5.37
2019-03-03T12:06:42.159Z,5.23
2019-03-03T12:09:29.771Z,5.27
2019-03-03T12:12:16.073Z,5.83
2019-03-03T12:14:51.109Z,4.77
2019-03-03T12:17:25.517Z,4.87
2019-03-03T12:19:56.894Z,3.80
2019-03-03T12:22:30.664Z,5.10
2019-03-03T12:25:02.166Z,4.37
2019-03-03T12:27:36.681Z,4.47
2019-03-03T12:30:17.048Z,4.93
2019-03-03T12:32:48.655Z,4.80
2019-03-03T12:35:20.099Z,4.27
2019-03-03T12:37:51.429Z,4.57
2019-03-03T12:40:39.146Z,3.93
2019-03-03T12:43:10.777Z,4.23
2019-03-03T12:45:42.126Z,4.43
2019-03-03T12:48:29.399Z,4.93
2019-03-03T12:51:00.807Z,4.10
2019-03-03T12:53:34.965Z,3.33
2019-03-03T12:56:12.120Z,4.50
2019-03-03T12:58:43.522Z,4.20
2019-03-03T13:01:31.082Z,4.10
2019-03-03T13:04:02.959Z,5.30
2019-03-03T13:06:43.458Z,3.87
2019-03-03T13:09:24.038Z,4.30
2019-03-03T13:12:01.259Z,3.70
2019-03-03T13:14:48.814Z,4.03
2019-03-03T13:17:29.150Z,4.83
2019-03-03T13:20:06.581Z,4.17
2019-03-03T13:22:46.793Z,4.93
2019-03-03T13:25:18.479Z,4.73
2019-03-03T13:27:58.827Z,4.33
2019-03-03T13:30:34.661Z,4.40
2019-03-03T13:33:20.854Z,4.37
2019-03-03T13:36:08.752Z,4.47
2019-03-03T13:38:40.639Z,4.00
2019-03-03T13:41:18.803Z,4.27
2019-03-03T13:43:48.769Z,4.17
2019-03-03T13:46:20.171Z,4.47
2019-03-03T13:48:51.332Z,5.00
2019-03-03T13:51:21.429Z,3.87
2019-03-03T13:53:51.274Z,3.87
2019-03-03T13:56:21.364Z,4.17
2019-03-03T13:58:51.539Z,4.43
2019-03-03T14:01:21.453Z,3.80
2019-03-03T14:03:51.195Z,4.37
2019-03-03T14:06:21.271Z,4.13
2019-03-03T14:08:51.069Z,4.03
2019-03-03T14:11:31.204Z,3.90
2019-03-03T14:14:04.630Z,4.00
2019-03-03T14:16:34.746Z,4.43
2019-03-03T14:19:04.650Z,4.07
2019-03-03T14:21:34.570Z,4.43
2019-03-03T14:24:04.810Z,4.70
2019-03-03T14:26:34.876Z,3.70
2019-03-03T14:29:05.473Z,4.40
2019-03-03T14:31:36.284Z,4.40
2019-03-03T14:38:05.840Z,3.30
2019-03-03T14:40:45.235Z,4.17
2019-03-03T14:43:20.181Z,3.50
2019-03-03T14:45:54.882Z,3.27
2019-03-03T14:48:33.214Z,3.73
2019-03-03T14:51:06.241Z,3.03
2019-03-03T14:54:13.592Z,3.90
2019-03-03T14:56:45.814Z,3.67
2019-03-03T14:59:18.335Z,3.97
2019-03-03T15:01:58.902Z,4.00
2019-03-03T15:04:45.561Z,3.33
2019-03-03T15:07:19.452Z,3.53
2019-03-03T15:09:54.874Z,3.63
2019-03-03T15:12:27.960Z,3.17
2019-03-03T15:15:02.730Z,2.87
2019-03-03T15:17:50.126Z,3.30
2019-03-03T15:20:24.512Z,3.40
2019-03-03T15:22:56.845Z,3.17
2019-03-03T15:25:31.296Z,3.77
2019-03-03T15:28:06.150Z,3.13
2019-03-03T15:30:38.008Z,3.07
2019-03-03T15:33:24.778Z,3.17
2019-03-03T15:35:56.168Z,3.63
2019-03-03T15:38:28.030Z,2.97
2019-03-03T15:40:58.794Z,4.20
2019-03-03T15:43:28.827Z,3.53
2019-03-03T15:45:58.951Z,3.70
2019-03-03T15:48:29.254Z,3.60
2019-03-03T15:50:59.462Z,3.80
2019-03-03T15:53:30.064Z,4.27
2019-03-03T15:56:00.220Z,3.63
2019-03-03T15:58:30.718Z,3.80
2019-03-03T16:01:01.147Z,4.20
2019-03-03T16:03:31.338Z,4.17
2019-03-03T16:06:01.230Z,4.97
2019-03-03T16:08:31.177Z,4.43
2019-03-03T16:11:05.619Z,4.73
2019-03-03T16:13:35.870Z,3.77
2019-03-03T16:16:06.769Z,4.40
2019-03-03T16:18:38.076Z,4.43
2019-03-03T16:21:08.252Z,4.43
2019-03-03T16:23:38.365Z,4.37
2019-03-03T16:26:08.832Z,4.73
2019-03-03T16:28:38.874Z,5.10
2019-03-03T16:31:08.611Z,6.43
2019-03-03T16:33:41.366Z,4.57
2019-03-03T16:36:11.885Z,4.77
2019-03-03T16:38:42.813Z,4.83
2019-03-03T16:41:14.187Z,4.10
2019-03-03T16:43:45.036Z,4.40
2019-03-03T16:46:15.843Z,4.13
2019-03-03T16:48:46.529Z,5.03
2019-03-03T16:51:16.571Z,4.73
2019-03-03T16:53:47.879Z,4.77
2019-03-03T16:56:18.469Z,7.10
2019-03-03T16:58:50.216Z,5.47
2019-03-03T17:01:20.669Z,6.17
2019-03-03T17:03:50.652Z,6.17
2019-03-03T17:06:21.970Z,6.13
2019-03-03T17:08:51.906Z,6.00
2019-03-03T17:11:21.737Z,6.53
2019-03-03T17:13:51.613Z,5.60
2019-03-03T17:16:21.572Z,6.80
2019-03-03T17:18:52.115Z,6.57
2019-03-03T17:21:22.190Z,6.00
2019-03-03T17:23:52.902Z,5.97
2019-03-03T17:26:24.601Z,6.20
2019-03-03T17:28:54.869Z,7.63
2019-03-03T17:31:26.167Z,6.80
2019-03-03T17:33:57.025Z,7.30
2019-03-03T17:36:29.571Z,6.87
2019-03-03T17:39:07.517Z,6.77
2019-03-03T17:41:38.652Z,5.90
2019-03-03T17:44:18.073Z,8.17
2019-03-03T17:47:00.727Z,6.87
2019-03-03T17:50:22.682Z,9.80
2019-03-03T17:56:40.656Z,6.10
2019-03-03T17:59:10.608Z,6.37
2019-03-03T18:01:40.678Z,6.73
2019-03-03T18:04:11.207Z,6.57
2019-03-03T18:06:47.835Z,6.33
2019-03-03T18:09:18.478Z,8.67
2019-03-03T18:11:54.487Z,11.60
2019-03-03T18:14:26.159Z,7.00
2019-03-03T18:17:00.030Z,6.57
2019-03-03T18:19:33.100Z,6.93
2019-03-03T18:22:03.707Z,6.30
2019-03-03T18:24:33.975Z,5.73
2019-03-03T18:27:03.891Z,6.50
2019-03-03T18:29:34.269Z,5.67
2019-03-03T18:32:04.138Z,6.10
2019-03-03T18:34:34.092Z,5.60
2019-03-03T18:37:04.344Z,5.93
2019-03-03T18:39:34.114Z,6.00
2019-03-03T18:42:04.353Z,5.73
2019-03-03T18:44:34.193Z,6.97
2019-03-03T18:47:04.494Z,6.17
2019-03-03T18:49:34.527Z,6.60
2019-03-03T18:52:05.107Z,6.57
2019-03-03T18:54:38.967Z,6.67
2019-03-03T18:57:09.687Z,6.80
2019-03-03T18:59:40.360Z,7.50
2019-03-03T19:02:10.678Z,6.93
2019-03-03T19:04:41.202Z,7.17
2019-03-03T19:07:12.513Z,8.03
2019-03-03T19:09:43.459Z,7.57
2019-03-03T19:12:14.531Z,8.93
2019-03-03T19:14:44.633Z,10.00
2019-03-03T19:17:14.771Z,8.47
2019-03-03T19:19:46.376Z,9.90
2019-03-03T19:22:16.976Z,9.67
2019-03-03T19:24:47.175Z,10.00
2019-03-03T19:27:16.806Z,9.67
2019-03-03T19:29:47.392Z,9.50
2019-03-03T19:32:17.762Z,9.53
2019-03-03T19:34:48.017Z,10.07
2019-03-03T19:37:18.988Z,9.40
2019-03-03T19:39:49.437Z,9.60
2019-03-03T19:42:20.062Z,9.50
2019-03-03T19:44:51.015Z,9.47
2019-03-03T19:47:20.972Z,9.40
2019-03-03T19:49:50.994Z,9.80
2019-03-03T19:52:21.990Z,8.23
2019-03-03T19:54:53.130Z,8.50
2019-03-03T19:57:23.281Z,8.60
2019-03-03T20:00:01.063Z,7.97
2019-03-03T20:02:31.874Z,8.10
2019-03-03T20:05:02.180Z,8.50
2019-03-03T20:07:32.434Z,8.23
2019-03-03T20:10:12.572Z,7.57
2019-03-03T20:12:43.159Z,7.87
2019-03-03T20:15:13.555Z,8.07
2019-03-03T20:17:46.095Z,8.30
2019-03-03T20:20:23.164Z,7.40
2019-03-03T20:22:53.402Z,8.10
2019-03-03T20:25:25.231Z,7.90
2019-03-03T20:27:59.219Z,7.17
2019-03-03T20:30:29.681Z,8.63
2019-03-03T20:32:59.670Z,7.83
2019-03-03T20:35:32.150Z,7.50
2019-03-03T20:38:02.695Z,7.80
2019-03-03T20:40:33.251Z,8.53
2019-03-03T20:43:04.586Z,7.93
2019-03-03T20:45:35.270Z,7.77
2019-03-03T20:48:05.677Z,7.13
2019-03-03T20:50:37.826Z,7.37
2019-03-03T20:53:08.069Z,8.10
2019-03-03T20:55:38.586Z,7.57
2019-03-03T20:58:09.817Z,7.20
2019-03-03T21:00:40.270Z,7.90
2019-03-03T21:03:10.631Z,7.70
2019-03-03T21:06:19.168Z,7.90
2019-03-03T21:09:33.339Z,8.27
2019-03-03T21:12:10.828Z,8.23
2019-03-03T21:14:40.854Z,9.57
2019-03-03T21:17:10.845Z,8.97
2019-03-03T21:19:40.837Z,8.67
2019-03-03T21:22:11.030Z,9.97
2019-03-03T21:24:40.913Z,10.10
2019-03-03T21:27:11.031Z,10.17
2019-03-03T21:29:41.009Z,11.00
2019-03-03T21:32:11.456Z,11.43
2019-03-03T21:34:41.443Z,11.37
2019-03-03T21:37:11.788Z,12.23
2019-03-03T21:39:42.090Z,12.33
2019-03-03T21:42:12.017Z,11.87
2019-03-03T21:44:42.790Z,13.90
2019-03-03T21:47:13.284Z,13.17
2019-03-03T21:49:43.506Z,13.53
2019-03-03T21:52:13.366Z,13.80
2019-03-03T21:54:43.308Z,12.83
2019-03-03T21:57:13.681Z,13.57
2019-03-03T21:59:43.984Z,13.77
2019-03-03T22:02:15.534Z,13.90
2019-03-03T22:04:45.809Z,13.30
2019-03-03T22:07:17.215Z,14.47
2019-03-03T22:09:47.283Z,12.57
2019-03-03T22:12:17.431Z,14.90
2019-03-03T22:14:47.291Z,13.70
2019-03-03T22:17:17.310Z,14.83
2019-03-03T22:19:47.421Z,13.10
2019-03-03T22:22:18.098Z,14.33
2019-03-03T22:24:52.760Z,14.43
2019-03-03T22:27:29.927Z,13.43
2019-03-03T22:30:03.195Z,13.90
2019-03-03T22:32:42.210Z,13.53
2019-03-03T22:35:20.183Z,12.87
2019-03-03T22:38:01.408Z,14.03
2019-03-03T22:40:41.745Z,13.60
2019-03-03T22:43:20.863Z,13.07
2019-03-03T22:45:57.075Z,13.40
2019-03-03T22:48:27.346Z,13.70
2019-03-03T22:50:57.647Z,14.37
2019-03-03T22:53:28.213Z,13.70
2019-03-03T22:55:58.258Z,14.23
2019-03-03T22:58:28.479Z,14.50
2019-03-03T23:01:08.137Z,14.13
2019-03-03T23:03:56.547Z,13.43
2019-03-03T23:06:36.715Z,13.00
2019-03-03T23:09:12.695Z,13.50
2019-03-03T23:12:13.141Z,13.27
2019-03-03T23:14:48.879Z,14.57
2019-03-03T23:17:43.944Z,14.10
2019-03-03T23:20:25.610Z,13.80
2019-03-03T23:23:17.830Z,13.80
2019-03-03T23:25:52.203Z,14.87
2019-03-03T23:28:22.229Z,13.80
2019-03-03T23:30:52.779Z,13.93
2019-03-03T23:33:22.571Z,13.43
2019-03-03T23:35:52.864Z,13.43
2019-03-03T23:38:22.664Z,15.13
2019-03-03T23:40:56.124Z,13.33
2019-03-03T23:43:26.972Z,13.50
2019-03-03T23:45:57.164Z,13.93
2019-03-03T23:48:27.171Z,13.93
2019-03-03T23:50:57.121Z,14.07
2019-03-03T23:53:26.999Z,14.43
2019-03-03T23:55:57.258Z,14.67
2019-03-03T23:58:28.035Z,14.90
